sensor_id;sensor_type;location;lat;lon;timestamp;temperature;humidity
30134;DHT22;16946;49.984;10.672;2024-02-26T00:00:29;0.10;99.90
30134;DHT22;16946;49.984;10.672;2024-02-26T00:01:00;0.10;99.90
30134;DHT22;16946;49.984;10.672;2024-02-26T00:01:32;0.10;99.90
30134;DHT22;16946;49.984;10.672;2024-02-26T00:02:04;0.20;99.90
30134;DHT22;16946;49.984;10.672;2024-02-26T00:02:37;0.20;99.90
30134;DHT22;16946;49.984;10.672;2024-02-26T00:03:08;0.10;99.90
30134;DHT22;16946;49.984;10.672;2024-02-26T00:03:38;0.10;99.90
30134;DHT22;16946;49.984;10.672;2024-02-26T00:04:12;0.10;99.90
30134;DHT22;16946;49.984;10.672;2024-02-26T00:04:43;0.10;99.90
30134;DHT22;16946;49.984;10.672;2024-02-26T00:05:14;0.10;99.90
30134;DHT22;16946;49.984;10.672;2024-02-26T00:05:44;0.10;99.90
30134;DHT22;16946;49.984;10.672;2024-02-26T00:06:15;0.10;99.90
30134;DHT22;16946;49.984;10.672;2024-02-26T00:06:45;0.20;99.90
30134;DHT22;16946;49.984;10.672;2024-02-26T00:07:16;0.20;99.90
30134;DHT22;16946;49.984;10.672;2024-02-26T00:07:47;0.20;99.90
30134;DHT22;16946;49.984;10.672;2024-02-26T00:08:17;0.20;99.90
30134;DHT22;16946;49.984;10.672;2024-02-26T00:08:48;0.20;99.90
30134;DHT22;16946;49.984;10.672;2024-02-26T00:09:18;0.20;99.90
30134;DHT22;16946;49.984;10.672;2024-02-26T00:09:49;0.20;99.90
30134;DHT22;16946;49.984;10.672;2024-02-26T00:10:19;0.20;99.90
30134;DHT22;16946;49.984;10.672;2024-02-26T00:10:50;0.20;99.90
30134;DHT22;16946;49.984;10.672;2024-02-26T00:11:20;0.30;99.90
30134;DHT22;16946;49.984;10.672;2024-02-26T00:11:51;0.30;99.90
30134;DHT22;16946;49.984;10.672;2024-02-26T00:12:21;0.30;99.90
30134;DHT22;16946;49.984;10.672;2024-02-26T00:12:52;0.30;99.90
30134;DHT22;16946;49.984;10.672;2024-02-26T00:13:22;0.30;99.90
30134;DHT22;16946;49.984;10.672;2024-02-26T00:13:53;0.30;99.90
30134;DHT22;16946;49.984;10.672;2024-02-26T00:14:23;0.30;99.90
30134;DHT22;16946;49.984;10.672;2024-02-26T00:14:54;0.30;99.90
30134;DHT22;16946;49.984;10.672;2024-02-26T00:15:24;0.40;99.90
30134;DHT22;16946;49.984;10.672;2024-02-26T00:15:55;0.40;99.90
30134;DHT22;16946;49.984;10.672;2024-02-26T00:16:26;0.40;99.90
30134;DHT22;16946;49.984;10.672;2024-02-26T00:16:57;0.40;99.90
30134;DHT22;16946;49.984;10.672;2024-02-26T00:17:27;0.40;99.90
30134;DHT22;16946;49.984;10.672;2024-02-26T00:17:58;0.40;99.90
30134;DHT22;16946;49.984;10.672;2024-02-26T00:18:28;0.40;99.90
30134;DHT22;16946;49.984;10.672;2024-02-26T00:18:59;0.40;99.90
30134;DHT22;16946;49.984;10.672;2024-02-26T00:19:29;0.40;99.90
30134;DHT22;16946;49.984;10.672;2024-02-26T00:20:00;0.30;99.90
30134;DHT22;16946;49.984;10.672;2024-02-26T00:20:31;0.40;99.90
30134;DHT22;16946;49.984;10.672;2024-02-26T00:21:02;0.40;99.90
30134;DHT22;16946;49.984;10.672;2024-02-26T00:21:33;0.30;99.90
30134;DHT22;16946;49.984;10.672;2024-02-26T00:22:03;0.40;99.90
30134;DHT22;16946;49.984;10.672;2024-02-26T00:22:34;0.40;99.90
30134;DHT22;16946;49.984;10.672;2024-02-26T00:23:05;0.40;99.90
30134;DHT22;16946;49.984;10.672;2024-02-26T00:23:35;0.40;99.90
30134;DHT22;16946;49.984;10.672;2024-02-26T00:24:06;0.40;99.90
30134;DHT22;16946;49.984;10.672;2024-02-26T00:24:37;0.40;99.90
30134;DHT22;16946;49.984;10.672;2024-02-26T00:25:07;0.40;99.90
30134;DHT22;16946;49.984;10.672;2024-02-26T00:25:38;0.40;99.90
30134;DHT22;16946;49.984;10.672;2024-02-26T00:26:08;0.40;99.90
30134;DHT22;16946;49.984;10.672;2024-02-26T00:26:41;0.40;99.90
30134;DHT22;16946;49.984;10.672;2024-02-26T00:27:11;0.40;99.90
30134;DHT22;16946;49.984;10.672;2024-02-26T00:27:42;0.40;99.90
30134;DHT22;16946;49.984;10.672;2024-02-26T00:28:14;0.40;99.90
30134;DHT22;16946;49.984;10.672;2024-02-26T00:28:44;0.40;99.90
30134;DHT22;16946;49.984;10.672;2024-02-26T00:29:15;0.40;99.90
30134;DHT22;16946;49.984;10.672;2024-02-26T00:29:45;0.40;99.90
30134;DHT22;16946;49.984;10.672;2024-02-26T00:30:16;0.50;99.90
30134;DHT22;16946;49.984;10.672;2024-02-26T00:30:47;0.50;99.90
30134;DHT22;16946;49.984;10.672;2024-02-26T00:31:17;0.40;99.90
30134;DHT22;16946;49.984;10.672;2024-02-26T00:31:48;0.40;99.90
30134;DHT22;16946;49.984;10.672;2024-02-26T00:32:19;0.40;99.90
30134;DHT22;16946;49.984;10.672;2024-02-26T00:32:49;0.40;99.90
30134;DHT22;16946;49.984;10.672;2024-02-26T00:33:20;0.40;99.90
30134;DHT22;16946;49.984;10.672;2024-02-26T00:33:50;0.40;99.90
30134;DHT22;16946;49.984;10.672;2024-02-26T00:34:21;0.30;99.90
30134;DHT22;16946;49.984;10.672;2024-02-26T00:34:51;0.40;99.90
30134;DHT22;16946;49.984;10.672;2024-02-26T00:35:22;0.40;99.90
30134;DHT22;16946;49.984;10.672;2024-02-26T00:35:52;0.40;99.90
30134;DHT22;16946;49.984;10.672;2024-02-26T00:36:23;0.40;99.90
30134;DHT22;16946;49.984;10.672;2024-02-26T00:36:53;0.50;99.90
30134;DHT22;16946;49.984;10.672;2024-02-26T00:37:24;0.40;99.90
30134;DHT22;16946;49.984;10.672;2024-02-26T00:37:54;0.50;99.90
30134;DHT22;16946;49.984;10.672;2024-02-26T00:38:25;0.40;99.90
30134;DHT22;16946;49.984;10.672;2024-02-26T00:38:55;0.40;99.90
30134;DHT22;16946;49.984;10.672;2024-02-26T00:39:26;0.50;99.90
30134;DHT22;16946;49.984;10.672;2024-02-26T00:39:57;0.50;99.90
30134;DHT22;16946;49.984;10.672;2024-02-26T00:40:27;0.50;99.90
30134;DHT22;16946;49.984;10.672;2024-02-26T00:40:58;0.50;99.90
30134;DHT22;16946;49.984;10.672;2024-02-26T00:41:28;0.50;99.90
30134;DHT22;16946;49.984;10.672;2024-02-26T00:41:59;0.50;99.90
30134;DHT22;16946;49.984;10.672;2024-02-26T00:42:29;0.50;99.90
30134;DHT22;16946;49.984;10.672;2024-02-26T00:43:00;0.40;99.90
30134;DHT22;16946;49.984;10.672;2024-02-26T00:43:30;0.50;99.90
30134;DHT22;16946;49.984;10.672;2024-02-26T00:44:01;0.50;99.90
30134;DHT22;16946;49.984;10.672;2024-02-26T00:44:31;0.40;99.90
30134;DHT22;16946;49.984;10.672;2024-02-26T00:45:02;0.50;99.90
30134;DHT22;16946;49.984;10.672;2024-02-26T00:45:33;0.50;99.90
30134;DHT22;16946;49.984;10.672;2024-02-26T00:46:03;0.50;99.90
30134;DHT22;16946;49.984;10.672;2024-02-26T00:46:34;0.50;99.90
30134;DHT22;16946;49.984;10.672;2024-02-26T00:47:05;0.50;99.90
30134;DHT22;16946;49.984;10.672;2024-02-26T00:47:35;0.50;99.90
30134;DHT22;16946;49.984;10.672;2024-02-26T00:48:06;0.60;99.90
30134;DHT22;16946;49.984;10.672;2024-02-26T00:48:37;0.50;99.90
30134;DHT22;16946;49.984;10.672;2024-02-26T00:49:08;0.60;99.90
30134;DHT22;16946;49.984;10.672;2024-02-26T00:49:38;0.60;99.90
30134;DHT22;16946;49.984;10.672;2024-02-26T00:50:10;0.60;99.90
30134;DHT22;16946;49.984;10.672;2024-02-26T00:50:40;0.60;99.90
30134;DHT22;16946;49.984;10.672;2024-02-26T00:51:11;0.60;99.90
30134;DHT22;16946;49.984;10.672;2024-02-26T00:51:41;0.60;99.90
30134;DHT22;16946;49.984;10.672;2024-02-26T00:52:12;0.60;99.90
30134;DHT22;16946;49.984;10.672;2024-02-26T00:52:42;0.70;99.90
30134;DHT22;16946;49.984;10.672;2024-02-26T00:53:13;0.70;99.90
30134;DHT22;16946;49.984;10.672;2024-02-26T00:53:44;0.60;99.90
30134;DHT22;16946;49.984;10.672;2024-02-26T00:54:14;0.60;99.90
30134;DHT22;16946;49.984;10.672;2024-02-26T00:54:45;0.60;99.90
30134;DHT22;16946;49.984;10.672;2024-02-26T00:55:15;0.50;99.90
30134;DHT22;16946;49.984;10.672;2024-02-26T00:55:46;0.50;99.90
30134;DHT22;16946;49.984;10.672;2024-02-26T00:56:17;0.40;99.90
30134;DHT22;16946;49.984;10.672;2024-02-26T00:56:47;0.40;99.90
30134;DHT22;16946;49.984;10.672;2024-02-26T00:57:18;0.40;99.90
30134;DHT22;16946;49.984;10.672;2024-02-26T00:57:49;0.30;99.90
30134;DHT22;16946;49.984;10.672;2024-02-26T00:58:19;0.20;99.90
30134;DHT22;16946;49.984;10.672;2024-02-26T00:58:50;0.20;99.90
30134;DHT22;16946;49.984;10.672;2024-02-26T00:59:21;0.20;99.90
30134;DHT22;16946;49.984;10.672;2024-02-26T00:59:52;0.10;99.90
30134;DHT22;16946;49.984;10.672;2024-02-26T01:00:22;0.10;99.90
30134;DHT22;16946;49.984;10.672;2024-02-26T01:00:53;0.00;99.90
30134;DHT22;16946;49.984;10.672;2024-02-26T01:01:23;0.00;99.90
30134;DHT22;16946;49.984;10.672;2024-02-26T01:01:54;0.00;99.90
30134;DHT22;16946;49.984;10.672;2024-02-26T01:02:25;0.00;99.90
30134;DHT22;16946;49.984;10.672;2024-02-26T01:02:55;-0.10;99.90
30134;DHT22;16946;49.984;10.672;2024-02-26T01:03:27;-0.10;99.90
30134;DHT22;16946;49.984;10.672;2024-02-26T01:03:57;-0.10;99.90
30134;DHT22;16946;49.984;10.672;2024-02-26T01:04:28;-0.10;99.90
30134;DHT22;16946;49.984;10.672;2024-02-26T01:04:58;-0.10;99.90
30134;DHT22;16946;49.984;10.672;2024-02-26T01:05:29;-0.20;99.90
30134;DHT22;16946;49.984;10.672;2024-02-26T01:05:59;-0.20;99.90
30134;DHT22;16946;49.984;10.672;2024-02-26T01:06:30;-0.20;99.90
30134;DHT22;16946;49.984;10.672;2024-02-26T01:07:00;-0.20;99.90
30134;DHT22;16946;49.984;10.672;2024-02-26T01:07:31;-0.20;99.90
30134;DHT22;16946;49.984;10.672;2024-02-26T01:08:06;-0.20;99.90
30134;DHT22;16946;49.984;10.672;2024-02-26T01:08:36;-0.20;99.90
30134;DHT22;16946;49.984;10.672;2024-02-26T01:09:07;-0.10;99.90
30134;DHT22;16946;49.984;10.672;2024-02-26T01:09:38;-0.20;99.90
30134;DHT22;16946;49.984;10.672;2024-02-26T01:10:09;-0.20;99.90
30134;DHT22;16946;49.984;10.672;2024-02-26T01:10:40;-0.20;99.90
30134;DHT22;16946;49.984;10.672;2024-02-26T01:11:10;-0.20;99.90
30134;DHT22;16946;49.984;10.672;2024-02-26T01:11:41;-0.20;99.90
30134;DHT22;16946;49.984;10.672;2024-02-26T01:12:11;-0.20;99.90
30134;DHT22;16946;49.984;10.672;2024-02-26T01:12:42;-0.20;99.90
30134;DHT22;16946;49.984;10.672;2024-02-26T01:13:12;-0.10;99.90
30134;DHT22;16946;49.984;10.672;2024-02-26T01:13:43;-0.10;99.90
30134;DHT22;16946;49.984;10.672;2024-02-26T01:14:13;-0.10;99.90
30134;DHT22;16946;49.984;10.672;2024-02-26T01:14:45;-0.10;99.90
30134;DHT22;16946;49.984;10.672;2024-02-26T01:15:15;-0.10;99.90
30134;DHT22;16946;49.984;10.672;2024-02-26T01:15:46;-0.10;99.90
30134;DHT22;16946;49.984;10.672;2024-02-26T01:16:16;-0.10;99.90
30134;DHT22;16946;49.984;10.672;2024-02-26T01:16:47;-0.10;99.90
30134;DHT22;16946;49.984;10.672;2024-02-26T01:17:17;-0.10;99.90
30134;DHT22;16946;49.984;10.672;2024-02-26T01:17:49;-0.10;99.90
30134;DHT22;16946;49.984;10.672;2024-02-26T01:18:21;-0.10;99.90
30134;DHT22;16946;49.984;10.672;2024-02-26T01:18:52;-0.10;99.90
30134;DHT22;16946;49.984;10.672;2024-02-26T01:19:23;-0.10;99.90
30134;DHT22;16946;49.984;10.672;2024-02-26T01:19:53;-0.10;99.90
30134;DHT22;16946;49.984;10.672;2024-02-26T01:20:24;-0.10;99.90
30134;DHT22;16946;49.984;10.672;2024-02-26T01:20:55;-0.10;99.90
30134;DHT22;16946;49.984;10.672;2024-02-26T01:21:25;-0.10;99.90
30134;DHT22;16946;49.984;10.672;2024-02-26T01:21:59;-0.10;99.90
30134;DHT22;16946;49.984;10.672;2024-02-26T01:22:29;-0.10;99.90
30134;DHT22;16946;49.984;10.672;2024-02-26T01:23:00;-0.10;99.90
30134;DHT22;16946;49.984;10.672;2024-02-26T01:23:31;-0.10;99.90
30134;DHT22;16946;49.984;10.672;2024-02-26T01:24:01;-0.10;99.90
30134;DHT22;16946;49.984;10.672;2024-02-26T01:24:32;-0.10;99.90
30134;DHT22;16946;49.984;10.672;2024-02-26T01:25:02;-0.10;99.90
30134;DHT22;16946;49.984;10.672;2024-02-26T01:25:33;-0.10;99.90
30134;DHT22;16946;49.984;10.672;2024-02-26T01:26:04;-0.10;99.90
30134;DHT22;16946;49.984;10.672;2024-02-26T01:26:35;-0.10;99.90
30134;DHT22;16946;49.984;10.672;2024-02-26T01:27:05;-0.10;99.90
30134;DHT22;16946;49.984;10.672;2024-02-26T01:27:38;-0.10;99.90
30134;DHT22;16946;49.984;10.672;2024-02-26T01:28:09;-0.10;99.90
30134;DHT22;16946;49.984;10.672;2024-02-26T01:28:39;-0.10;99.90
30134;DHT22;16946;49.984;10.672;2024-02-26T01:29:10;-0.10;99.90
30134;DHT22;16946;49.984;10.672;2024-02-26T01:29:41;-0.10;99.90
30134;DHT22;16946;49.984;10.672;2024-02-26T01:30:11;-0.10;99.90
30134;DHT22;16946;49.984;10.672;2024-02-26T01:30:42;-0.10;99.90
30134;DHT22;16946;49.984;10.672;2024-02-26T01:31:12;-0.10;99.90
30134;DHT22;16946;49.984;10.672;2024-02-26T01:31:43;-0.10;99.90
30134;DHT22;16946;49.984;10.672;2024-02-26T01:32:13;-0.10;99.90
30134;DHT22;16946;49.984;10.672;2024-02-26T01:32:44;-0.10;99.90
30134;DHT22;16946;49.984;10.672;2024-02-26T01:33:15;-0.10;99.90
30134;DHT22;16946;49.984;10.672;2024-02-26T01:33:45;-0.20;99.90
30134;DHT22;16946;49.984;10.672;2024-02-26T01:34:16;-0.20;99.90
30134;DHT22;16946;49.984;10.672;2024-02-26T01:34:48;-0.20;99.90
30134;DHT22;16946;49.984;10.672;2024-02-26T01:35:19;-0.20;99.90
30134;DHT22;16946;49.984;10.672;2024-02-26T01:35:50;-0.20;99.90
30134;DHT22;16946;49.984;10.672;2024-02-26T01:36:21;-0.20;99.90
30134;DHT22;16946;49.984;10.672;2024-02-26T01:36:51;-0.20;99.90
30134;DHT22;16946;49.984;10.672;2024-02-26T01:37:22;-0.20;99.90
30134;DHT22;16946;49.984;10.672;2024-02-26T01:37:52;-0.20;99.90
30134;DHT22;16946;49.984;10.672;2024-02-26T01:38:23;-0.20;99.90
30134;DHT22;16946;49.984;10.672;2024-02-26T01:38:53;-0.20;99.90
30134;DHT22;16946;49.984;10.672;2024-02-26T01:39:24;-0.20;99.90
30134;DHT22;16946;49.984;10.672;2024-02-26T01:39:55;-0.20;99.90
30134;DHT22;16946;49.984;10.672;2024-02-26T01:40:28;-0.10;99.90
30134;DHT22;16946;49.984;10.672;2024-02-26T01:41:00;-0.10;99.90
30134;DHT22;16946;49.984;10.672;2024-02-26T01:41:30;-0.10;99.90
30134;DHT22;16946;49.984;10.672;2024-02-26T01:42:01;-0.10;99.90
30134;DHT22;16946;49.984;10.672;2024-02-26T01:42:32;-0.10;99.90
30134;DHT22;16946;49.984;10.672;2024-02-26T01:43:03;-0.10;99.90
30134;DHT22;16946;49.984;10.672;2024-02-26T01:43:33;-0.10;99.90
30134;DHT22;16946;49.984;10.672;2024-02-26T01:44:04;-0.10;99.90
30134;DHT22;16946;49.984;10.672;2024-02-26T01:44:35;-0.10;99.90
30134;DHT22;16946;49.984;10.672;2024-02-26T01:45:05;-0.10;99.90
30134;DHT22;16946;49.984;10.672;2024-02-26T01:45:38;-0.10;99.90
30134;DHT22;16946;49.984;10.672;2024-02-26T01:46:13;0.00;99.90
30134;DHT22;16946;49.984;10.672;2024-02-26T01:46:44;-0.10;99.90
30134;DHT22;16946;49.984;10.672;2024-02-26T01:47:15;0.00;99.90
30134;DHT22;16946;49.984;10.672;2024-02-26T01:47:45;0.00;99.90
30134;DHT22;16946;49.984;10.672;2024-02-26T01:48:16;0.00;99.90
30134;DHT22;16946;49.984;10.672;2024-02-26T01:48:47;0.00;99.90
30134;DHT22;16946;49.984;10.672;2024-02-26T01:49:20;0.00;99.90
30134;DHT22;16946;49.984;10.672;2024-02-26T01:49:50;0.00;99.90
30134;DHT22;16946;49.984;10.672;2024-02-26T01:50:22;0.00;99.90
30134;DHT22;16946;49.984;10.672;2024-02-26T01:50:53;0.00;99.90
30134;DHT22;16946;49.984;10.672;2024-02-26T01:51:24;0.00;99.90
30134;DHT22;16946;49.984;10.672;2024-02-26T01:51:54;0.00;99.90
30134;DHT22;16946;49.984;10.672;2024-02-26T01:52:25;0.00;99.90
30134;DHT22;16946;49.984;10.672;2024-02-26T01:52:57;-0.10;99.90
30134;DHT22;16946;49.984;10.672;2024-02-26T01:53:27;0.00;99.90
30134;DHT22;16946;49.984;10.672;2024-02-26T01:53:59;0.00;99.90
30134;DHT22;16946;49.984;10.672;2024-02-26T01:54:31;0.00;99.90
30134;DHT22;16946;49.984;10.672;2024-02-26T01:55:03;0.00;99.90
30134;DHT22;16946;49.984;10.672;2024-02-26T01:55:34;0.00;99.90
30134;DHT22;16946;49.984;10.672;2024-02-26T01:56:05;0.00;99.90
30134;DHT22;16946;49.984;10.672;2024-02-26T01:56:37;0.00;99.90
30134;DHT22;16946;49.984;10.672;2024-02-26T01:57:09;0.00;99.90
30134;DHT22;16946;49.984;10.672;2024-02-26T01:57:42;0.00;99.90
30134;DHT22;16946;49.984;10.672;2024-02-26T01:58:13;0.00;99.90
30134;DHT22;16946;49.984;10.672;2024-02-26T01:58:44;0.00;99.90
30134;DHT22;16946;49.984;10.672;2024-02-26T01:59:15;0.00;99.90
30134;DHT22;16946;49.984;10.672;2024-02-26T01:59:46;0.00;99.90
30134;DHT22;16946;49.984;10.672;2024-02-26T02:00:17;0.00;99.90
30134;DHT22;16946;49.984;10.672;2024-02-26T02:00:48;0.00;99.90
30134;DHT22;16946;49.984;10.672;2024-02-26T02:01:21;0.00;99.90
30134;DHT22;16946;49.984;10.672;2024-02-26T02:01:56;0.00;99.90
30134;DHT22;16946;49.984;10.672;2024-02-26T02:02:27;0.00;99.90
30134;DHT22;16946;49.984;10.672;2024-02-26T02:02:58;0.10;99.90
30134;DHT22;16946;49.984;10.672;2024-02-26T02:03:30;0.10;99.90
30134;DHT22;16946;49.984;10.672;2024-02-26T02:04:01;0.10;99.90
30134;DHT22;16946;49.984;10.672;2024-02-26T02:04:32;0.10;99.90
30134;DHT22;16946;49.984;10.672;2024-02-26T02:05:02;0.10;99.90
30134;DHT22;16946;49.984;10.672;2024-02-26T02:05:34;0.10;99.90
30134;DHT22;16946;49.984;10.672;2024-02-26T02:06:12;0.10;99.90
30134;DHT22;16946;49.984;10.672;2024-02-26T02:06:45;0.20;99.90
30134;DHT22;16946;49.984;10.672;2024-02-26T02:07:16;0.10;99.90
30134;DHT22;16946;49.984;10.672;2024-02-26T02:07:46;0.20;99.90
30134;DHT22;16946;49.984;10.672;2024-02-26T02:08:18;0.10;99.90
30134;DHT22;16946;49.984;10.672;2024-02-26T02:08:49;0.20;99.90
30134;DHT22;16946;49.984;10.672;2024-02-26T02:09:20;0.20;99.90
30134;DHT22;16946;49.984;10.672;2024-02-26T02:09:50;0.10;99.90
30134;DHT22;16946;49.984;10.672;2024-02-26T02:10:21;0.10;99.90
30134;DHT22;16946;49.984;10.672;2024-02-26T02:10:53;0.20;99.90
30134;DHT22;16946;49.984;10.672;2024-02-26T02:11:24;0.20;99.90
30134;DHT22;16946;49.984;10.672;2024-02-26T02:11:55;0.20;99.90
30134;DHT22;16946;49.984;10.672;2024-02-26T02:12:26;0.20;99.90
30134;DHT22;16946;49.984;10.672;2024-02-26T02:12:57;0.20;99.90
30134;DHT22;16946;49.984;10.672;2024-02-26T02:13:28;0.30;99.90
30134;DHT22;16946;49.984;10.672;2024-02-26T02:13:58;0.30;99.90
30134;DHT22;16946;49.984;10.672;2024-02-26T02:14:29;0.30;99.90
30134;DHT22;16946;49.984;10.672;2024-02-26T02:15:00;0.20;99.90
30134;DHT22;16946;49.984;10.672;2024-02-26T02:15:31;0.20;99.90
30134;DHT22;16946;49.984;10.672;2024-02-26T02:16:01;0.20;99.90
30134;DHT22;16946;49.984;10.672;2024-02-26T02:16:32;0.20;99.90
30134;DHT22;16946;49.984;10.672;2024-02-26T02:17:03;0.20;99.90
30134;DHT22;16946;49.984;10.672;2024-02-26T02:17:33;0.20;99.90
30134;DHT22;16946;49.984;10.672;2024-02-26T02:18:04;0.20;99.90
30134;DHT22;16946;49.984;10.672;2024-02-26T02:18:35;0.20;99.90
30134;DHT22;16946;49.984;10.672;2024-02-26T02:19:06;0.20;99.90
30134;DHT22;16946;49.984;10.672;2024-02-26T02:19:36;0.20;99.90
30134;DHT22;16946;49.984;10.672;2024-02-26T02:20:14;0.10;99.90
30134;DHT22;16946;49.984;10.672;2024-02-26T02:20:46;0.10;99.90
30134;DHT22;16946;49.984;10.672;2024-02-26T02:21:16;0.20;99.90
30134;DHT22;16946;49.984;10.672;2024-02-26T02:21:47;0.20;99.90
30134;DHT22;16946;49.984;10.672;2024-02-26T02:22:18;0.20;99.90
30134;DHT22;16946;49.984;10.672;2024-02-26T02:22:48;0.20;99.90
30134;DHT22;16946;49.984;10.672;2024-02-26T02:23:19;0.20;99.90
30134;DHT22;16946;49.984;10.672;2024-02-26T02:23:50;0.20;99.90
30134;DHT22;16946;49.984;10.672;2024-02-26T02:24:20;0.20;99.90
30134;DHT22;16946;49.984;10.672;2024-02-26T02:24:52;0.20;99.90
30134;DHT22;16946;49.984;10.672;2024-02-26T02:25:22;0.20;99.90
30134;DHT22;16946;49.984;10.672;2024-02-26T02:25:53;0.20;99.90
30134;DHT22;16946;49.984;10.672;2024-02-26T02:26:25;0.10;99.90
30134;DHT22;16946;49.984;10.672;2024-02-26T02:26:56;0.20;99.90
30134;DHT22;16946;49.984;10.672;2024-02-26T02:27:27;0.20;99.90
30134;DHT22;16946;49.984;10.672;2024-02-26T02:27:58;0.10;99.90
30134;DHT22;16946;49.984;10.672;2024-02-26T02:28:29;0.10;99.90
30134;DHT22;16946;49.984;10.672;2024-02-26T02:29:01;0.20;99.90
30134;DHT22;16946;49.984;10.672;2024-02-26T02:29:32;0.10;99.90
30134;DHT22;16946;49.984;10.672;2024-02-26T02:30:03;0.10;99.90
30134;DHT22;16946;49.984;10.672;2024-02-26T02:30:34;0.10;99.90
30134;DHT22;16946;49.984;10.672;2024-02-26T02:31:06;0.10;99.90
30134;DHT22;16946;49.984;10.672;2024-02-26T02:31:36;0.20;99.90
30134;DHT22;16946;49.984;10.672;2024-02-26T02:32:07;0.20;99.90
30134;DHT22;16946;49.984;10.672;2024-02-26T02:32:40;0.10;99.90
30134;DHT22;16946;49.984;10.672;2024-02-26T02:33:12;0.20;99.90
30134;DHT22;16946;49.984;10.672;2024-02-26T02:33:43;0.20;99.90
30134;DHT22;16946;49.984;10.672;2024-02-26T02:34:14;0.10;99.90
30134;DHT22;16946;49.984;10.672;2024-02-26T02:34:45;0.10;99.90
30134;DHT22;16946;49.984;10.672;2024-02-26T02:35:16;0.10;99.90
30134;DHT22;16946;49.984;10.672;2024-02-26T02:35:46;0.10;99.90
30134;DHT22;16946;49.984;10.672;2024-02-26T02:36:17;0.10;99.90
30134;DHT22;16946;49.984;10.672;2024-02-26T02:36:54;0.10;99.90
30134;DHT22;16946;49.984;10.672;2024-02-26T02:37:25;0.20;99.90
30134;DHT22;16946;49.984;10.672;2024-02-26T02:37:57;0.20;99.90
30134;DHT22;16946;49.984;10.672;2024-02-26T02:38:28;0.20;99.90
30134;DHT22;16946;49.984;10.672;2024-02-26T02:39:00;0.20;99.90
30134;DHT22;16946;49.984;10.672;2024-02-26T02:39:30;0.20;99.90
30134;DHT22;16946;49.984;10.672;2024-02-26T02:40:01;0.20;99.90
30134;DHT22;16946;49.984;10.672;2024-02-26T02:40:32;0.20;99.90
30134;DHT22;16946;49.984;10.672;2024-02-26T02:41:02;0.20;99.90
30134;DHT22;16946;49.984;10.672;2024-02-26T02:41:33;0.30;99.90
30134;DHT22;16946;49.984;10.672;2024-02-26T02:42:04;0.30;99.90
30134;DHT22;16946;49.984;10.672;2024-02-26T02:42:35;0.30;99.90
30134;DHT22;16946;49.984;10.672;2024-02-26T02:43:05;0.40;99.90
30134;DHT22;16946;49.984;10.672;2024-02-26T02:43:36;0.40;99.90
30134;DHT22;16946;49.984;10.672;2024-02-26T02:44:07;0.40;99.90
30134;DHT22;16946;49.984;10.672;2024-02-26T02:44:37;0.40;99.90
30134;DHT22;16946;49.984;10.672;2024-02-26T02:45:08;0.40;99.90
30134;DHT22;16946;49.984;10.672;2024-02-26T02:45:39;0.40;99.90
30134;DHT22;16946;49.984;10.672;2024-02-26T02:46:09;0.40;99.90
30134;DHT22;16946;49.984;10.672;2024-02-26T02:46:42;0.40;99.90
30134;DHT22;16946;49.984;10.672;2024-02-26T02:47:12;0.50;99.90
30134;DHT22;16946;49.984;10.672;2024-02-26T02:47:43;0.40;99.90
30134;DHT22;16946;49.984;10.672;2024-02-26T02:48:13;0.50;99.90
30134;DHT22;16946;49.984;10.672;2024-02-26T02:48:44;0.50;99.90
30134;DHT22;16946;49.984;10.672;2024-02-26T02:49:14;0.50;99.90
30134;DHT22;16946;49.984;10.672;2024-02-26T02:49:45;0.50;99.90
30134;DHT22;16946;49.984;10.672;2024-02-26T02:50:15;0.50;99.90
30134;DHT22;16946;49.984;10.672;2024-02-26T02:50:46;0.50;99.90
30134;DHT22;16946;49.984;10.672;2024-02-26T02:51:17;0.50;99.90
30134;DHT22;16946;49.984;10.672;2024-02-26T02:51:47;0.50;99.90
30134;DHT22;16946;49.984;10.672;2024-02-26T02:52:18;0.50;99.90
30134;DHT22;16946;49.984;10.672;2024-02-26T02:52:48;0.60;99.90
30134;DHT22;16946;49.984;10.672;2024-02-26T02:53:20;0.60;99.90
30134;DHT22;16946;49.984;10.672;2024-02-26T02:53:50;0.60;99.90
30134;DHT22;16946;49.984;10.672;2024-02-26T02:54:21;0.60;99.90
30134;DHT22;16946;49.984;10.672;2024-02-26T02:54:51;0.60;99.90
30134;DHT22;16946;49.984;10.672;2024-02-26T02:55:22;0.60;99.90
30134;DHT22;16946;49.984;10.672;2024-02-26T02:55:53;0.60;99.90
30134;DHT22;16946;49.984;10.672;2024-02-26T02:56:23;0.70;99.90
30134;DHT22;16946;49.984;10.672;2024-02-26T02:56:54;0.70;99.90
30134;DHT22;16946;49.984;10.672;2024-02-26T02:57:24;0.70;99.90
30134;DHT22;16946;49.984;10.672;2024-02-26T02:57:55;0.70;99.90
30134;DHT22;16946;49.984;10.672;2024-02-26T02:58:25;0.70;99.90
30134;DHT22;16946;49.984;10.672;2024-02-26T02:58:56;0.70;99.90
30134;DHT22;16946;49.984;10.672;2024-02-26T02:59:27;0.70;99.90
30134;DHT22;16946;49.984;10.672;2024-02-26T02:59:57;0.80;99.90
30134;DHT22;16946;49.984;10.672;2024-02-26T03:00:28;0.80;99.90
30134;DHT22;16946;49.984;10.672;2024-02-26T03:00:58;0.80;99.90
30134;DHT22;16946;49.984;10.672;2024-02-26T03:01:30;0.90;99.90
30134;DHT22;16946;49.984;10.672;2024-02-26T03:02:01;0.90;99.90
30134;DHT22;16946;49.984;10.672;2024-02-26T03:02:31;0.90;99.90
30134;DHT22;16946;49.984;10.672;2024-02-26T03:03:02;1.00;99.90
30134;DHT22;16946;49.984;10.672;2024-02-26T03:03:33;1.00;99.90
30134;DHT22;16946;49.984;10.672;2024-02-26T03:04:04;1.00;99.90
30134;DHT22;16946;49.984;10.672;2024-02-26T03:04:34;1.00;99.90
30134;DHT22;16946;49.984;10.672;2024-02-26T03:05:05;1.00;99.90
30134;DHT22;16946;49.984;10.672;2024-02-26T03:05:36;1.00;99.90
30134;DHT22;16946;49.984;10.672;2024-02-26T03:06:06;1.00;99.90
30134;DHT22;16946;49.984;10.672;2024-02-26T03:06:37;1.00;99.90
30134;DHT22;16946;49.984;10.672;2024-02-26T03:07:07;1.10;99.90
30134;DHT22;16946;49.984;10.672;2024-02-26T03:07:38;1.10;99.90
30134;DHT22;16946;49.984;10.672;2024-02-26T03:08:09;1.00;99.90
30134;DHT22;16946;49.984;10.672;2024-02-26T03:08:39;1.00;99.90
30134;DHT22;16946;49.984;10.672;2024-02-26T03:09:12;1.00;99.90
30134;DHT22;16946;49.984;10.672;2024-02-26T03:09:42;0.90;99.90
30134;DHT22;16946;49.984;10.672;2024-02-26T03:10:13;0.90;99.90
30134;DHT22;16946;49.984;10.672;2024-02-26T03:10:44;0.80;99.90
30134;DHT22;16946;49.984;10.672;2024-02-26T03:11:14;0.80;99.90
30134;DHT22;16946;49.984;10.672;2024-02-26T03:11:45;0.70;99.90
30134;DHT22;16946;49.984;10.672;2024-02-26T03:12:16;0.70;99.90
30134;DHT22;16946;49.984;10.672;2024-02-26T03:12:46;0.70;99.90
30134;DHT22;16946;49.984;10.672;2024-02-26T03:13:17;0.70;99.90
30134;DHT22;16946;49.984;10.672;2024-02-26T03:13:48;0.60;99.90
30134;DHT22;16946;49.984;10.672;2024-02-26T03:14:18;0.70;99.90
30134;DHT22;16946;49.984;10.672;2024-02-26T03:14:49;0.70;99.90